Time;durP1;ratioP1;P1;durP2;ratioP2;P2;SDS_P1;SDS_P2;PMS_P1;PMS_P2;Temp;Humidity;BMP_temperature;BMP_pressure;BME280_temperature;BME280_humidity;BME280_pressure;Samples;Min_cycle;Max_cycle;Signal;HPM_P1;HPM_P2
2023/03/24 00:02:03;;;;;;;8.60;4.75;;;;;;;12.49;100.00;99311.75;20845622;28;20045;-69
2023/03/24 00:12:04;;;;;;;13.07;6.13;;;;;;;12.54;100.00;99294.03;20850789;28;20059;-69
2023/03/24 00:22:06;;;;;;;14.13;8.73;;;;;;;12.53;100.00;99284.47;20852032;28;20049;-70
2023/03/24 00:32:08;;;;;;;8.90;6.07;;;;;;;12.45;100.00;99277.81;20861396;28;20041;-70
2023/03/24 00:42:09;;;;;;;11.05;6.30;;;;;;;12.35;100.00;99261.59;20855235;28;20052;-69
2023/03/24 00:52:10;;;;;;;8.93;4.95;;;;;;;12.15;100.00;99243.19;20863539;28;20037;-69
2023/03/24 01:02:11;;;;;;;10.70;3.78;;;;;;;12.05;100.00;99230.44;20861524;28;20080;-69
2023/03/24 01:12:13;;;;;;;6.05;3.30;;;;;;;11.98;100.00;99231.63;20856932;28;20053;-69
2023/03/24 01:22:15;;;;;;;6.95;3.60;;;;;;;11.76;100.00;99213.22;20851973;28;20556;-69
2023/03/24 01:32:16;;;;;;;6.75;3.30;;;;;;;11.45;100.00;99199.59;20857055;28;20107;-69
2023/03/24 01:42:17;;;;;;;6.28;3.50;;;;;;;11.54;100.00;99202.69;20861097;28;20122;-69
2023/03/24 01:52:19;;;;;;;7.28;3.90;;;;;;;11.62;100.00;99204.19;20857253;28;20041;-69
2023/03/24 02:02:20;;;;;;;5.63;3.15;;;;;;;11.60;100.00;99179.81;20851835;28;20119;-69
2023/03/24 02:12:22;;;;;;;8.77;4.22;;;;;;;11.59;100.00;99185.94;20849574;28;20451;-70
2023/03/24 02:22:23;;;;;;;8.68;4.75;;;;;;;11.58;100.00;99182.47;20857423;28;20044;-70
2023/03/24 02:32:25;;;;;;;7.55;3.72;;;;;;;11.54;100.00;99158.13;20853287;28;20517;-70
2023/03/24 02:42:26;;;;;;;9.38;4.10;;;;;;;11.52;100.00;99123.28;20847211;28;20691;-69
2023/03/24 02:52:27;;;;;;;6.38;3.83;;;;;;;11.51;100.00;99116.34;20848527;28;20056;-69
2023/03/24 03:02:28;;;;;;;9.25;4.45;;;;;;;11.50;100.00;99104.16;20853404;28;20455;-69
2023/03/24 03:12:30;;;;;;;9.63;4.65;;;;;;;11.71;100.00;99114.69;20851217;28;20140;-69
2023/03/24 03:22:31;;;;;;;7.15;4.10;;;;;;;12.05;100.00;99159.59;20848887;28;20138;-70
2023/03/24 03:32:33;;;;;;;6.90;4.00;;;;;;;12.10;100.00;99155.94;20847638;28;20045;-70
2023/03/24 03:42:34;;;;;;;8.85;3.90;;;;;;;12.37;100.00;99160.03;20847502;28;20418;-69
2023/03/24 03:52:36;;;;;;;8.93;3.38;;;;;;;12.84;100.00;99164.97;20851775;28;20071;-70
2023/03/24 04:02:37;;;;;;;5.70;3.05;;;;;;;13.41;100.00;99183.41;20848521;28;20434;-70
2023/03/24 04:12:38;;;;;;;9.00;4.15;;;;;;;13.79;100.00;99216.66;20842215;28;20060;-69
2023/03/24 04:22:40;;;;;;;11.10;6.30;;;;;;;12.97;100.00;99231.78;20841761;28;20101;-72
2023/03/24 04:32:42;;;;;;;10.55;6.55;;;;;;;12.73;100.00;99225.84;20845508;28;20040;-70
2023/03/24 04:42:44;;;;;;;9.80;7.00;;;;;;;12.72;100.00;99244.31;20850775;28;20045;-71
2023/03/24 04:52:45;;;;;;;12.35;7.35;;;;;;;12.58;100.00;99251.00;20841418;28;20428;-71
2023/03/24 05:02:46;;;;;;;12.93;7.93;;;;;;;12.55;100.00;99268.63;20843812;28;20052;-71
2023/03/24 05:12:48;;;;;;;11.90;8.25;;;;;;;12.42;100.00;99289.31;20853925;28;20494;-74
2023/03/24 05:22:49;;;;;;;15.18;9.05;;;;;;;12.28;100.00;99274.13;20864901;28;20052;-74
2023/03/24 05:32:50;;;;;;;14.95;8.88;;;;;;;12.29;100.00;99248.72;20858746;28;20547;-73
2023/03/24 05:42:51;;;;;;;14.48;9.23;;;;;;;12.21;100.00;99263.94;20856455;28;20137;-72
2023/03/24 05:52:53;;;;;;;14.77;9.30;;;;;;;12.23;100.00;99246.38;20846678;28;20418;-72
2023/03/24 06:02:54;;;;;;;12.32;7.88;;;;;;;12.22;100.00;99226.28;20855590;28;20049;-72
2023/03/24 06:12:55;;;;;;;11.45;6.50;;;;;;;12.38;100.00;99229.97;20856477;28;20053;-71
2023/03/24 06:22:58;;;;;;;14.07;6.90;;;;;;;12.50;100.00;99245.22;20853924;28;20052;-72
2023/03/24 06:33:00;;;;;;;9.75;6.82;;;;;;;12.62;100.00;99266.63;20849106;28;20060;-71
2023/03/24 06:43:01;;;;;;;13.38;7.55;;;;;;;12.65;100.00;99276.97;20847471;28;20045;-70
2023/03/24 06:53:02;;;;;;;10.15;6.15;;;;;;;12.61;100.00;99280.69;20856661;28;20106;-69
2023/03/24 07:03:04;;;;;;;11.95;6.38;;;;;;;12.72;100.00;99296.84;20857678;28;20104;-69
2023/03/24 07:13:06;;;;;;;10.40;5.63;;;;;;;12.65;100.00;99311.13;20851984;28;20072;-69
2023/03/24 07:23:08;;;;;;;11.43;4.95;;;;;;;12.68;100.00;99321.50;20845548;28;20041;-72
2023/03/24 07:33:11;;;;;;;9.55;4.40;;;;;;;12.81;100.00;99317.47;20846346;28;20109;-73
2023/03/24 07:43:13;;;;;;;9.23;4.32;;;;;;;12.90;100.00;99316.22;20854323;28;20057;-71
2023/03/24 07:53:18;;;;;;;8.15;4.45;;;;;;;12.86;100.00;99294.47;20847965;28;20131;-71
2023/03/24 08:03:26;;;;;;;7.82;5.18;;;;;;;12.66;100.00;99297.09;20848640;28;20060;-70
2023/03/24 08:13:28;;;;;;;8.82;5.00;;;;;;;12.67;100.00;99309.31;20841979;28;20115;-70
2023/03/24 08:23:29;;;;;;;6.32;4.47;;;;;;;12.75;100.00;99292.31;20844936;28;20046;-69
2023/03/24 08:33:30;;;;;;;7.78;5.03;;;;;;;12.83;100.00;99321.72;20841948;28;20584;-69
2023/03/24 08:43:32;;;;;;;6.45;4.57;;;;;;;13.03;100.00;99323.53;20857221;28;20402;-69
2023/03/24 08:53:33;;;;;;;9.32;4.35;;;;;;;13.15;100.00;99308.97;20856829;28;20045;-68
2023/03/24 09:03:34;;;;;;;8.05;4.00;;;;;;;13.57;100.00;99319.41;20857219;28;20045;-69
2023/03/24 09:13:36;;;;;;;8.40;4.65;;;;;;;13.76;100.00;99318.56;20863558;28;20049;-69
2023/03/24 09:23:37;;;;;;;10.30;5.32;;;;;;;13.57;100.00;99332.56;20860344;22;20050;-71
2023/03/24 09:33:38;;;;;;;11.88;6.72;;;;;;;13.55;100.00;99318.59;20734967;28;20053;-77
2023/03/24 09:43:40;;;;;;;10.90;6.03;;;;;;;13.76;100.00;99322.03;20735833;28;20050;-70
2023/03/24 09:53:42;;;;;;;9.45;5.30;;;;;;;13.49;100.00;99342.56;20733831;28;20462;-70
2023/03/24 10:03:43;;;;;;;9.75;6.32;;;;;;;13.45;100.00;99343.59;20729446;28;20045;-72
2023/03/24 10:13:44;;;;;;;9.77;5.55;;;;;;;13.34;100.00;99354.59;20733904;28;20065;-71
2023/03/24 10:23:46;;;;;;;8.38;5.63;;;;;;;13.16;100.00;99375.53;20731693;28;20057;-72
2023/03/24 10:33:47;;;;;;;10.02;6.43;;;;;;;12.90;100.00;99385.38;20730230;28;20037;-72
2023/03/24 10:43:48;;;;;;;11.23;7.45;;;;;;;12.89;100.00;99399.44;20726243;28;20045;-71
2023/03/24 10:53:50;;;;;;;12.15;7.18;;;;;;;13.53;100.00;99396.72;20729167;28;20045;-71
2023/03/24 11:03:52;;;;;;;8.77;5.20;;;;;;;14.03;100.00;99390.97;20727959;28;20104;-70
2023/03/24 11:13:53;;;;;;;8.60;4.70;;;;;;;14.28;100.00;99401.22;20728120;28;20495;-70
2023/03/24 11:23:55;;;;;;;6.38;4.03;;;;;;;13.76;100.00;99431.69;20711735;28;20041;-70
2023/03/24 11:33:56;;;;;;;4.47;1.67;;;;;;;11.61;100.00;99477.78;20724820;28;20050;-72
2023/03/24 11:43:57;;;;;;;4.60;1.48;;;;;;;11.92;100.00;99478.41;20677817;28;20073;-70
2023/03/24 11:53:59;;;;;;;7.20;1.70;;;;;;;12.21;100.00;99456.34;20717920;28;20373;-71
2023/03/24 12:04:01;;;;;;;4.50;1.20;;;;;;;12.34;100.00;99459.38;20721282;28;20068;-69
2023/03/24 12:14:03;;;;;;;5.80;1.30;;;;;;;12.38;100.00;99466.22;20723579;28;20044;-69
2023/03/24 12:24:04;;;;;;;4.97;1.00;;;;;;;12.36;100.00;99468.06;20724373;28;20095;-69
2023/03/24 12:34:06;;;;;;;5.97;2.20;;;;;;;12.35;100.00;99466.34;20723556;28;20104;-69
2023/03/24 12:44:07;;;;;;;5.40;2.10;;;;;;;12.69;100.00;99462.41;20722582;28;20054;-69
2023/03/24 12:54:08;;;;;;;5.35;1.48;;;;;;;12.58;100.00;99447.06;20724408;28;20053;-69
2023/03/24 13:04:10;;;;;;;4.43;1.33;;;;;;;13.31;100.00;99461.66;20721023;28;20045;-70
2023/03/24 13:14:11;;;;;;;5.55;1.55;;;;;;;13.38;100.00;99471.03;20719665;28;20042;-70
2023/03/24 13:24:12;;;;;;;4.88;1.08;;;;;;;13.59;100.00;99470.09;20719889;28;20077;-70
2023/03/24 13:34:15;;;;;;;4.38;1.45;;;;;;;13.65;100.00;99453.19;20729303;28;20462;-71
2023/03/24 13:44:16;;;;;;;7.30;1.38;;;;;;;13.58;100.00;99436.81;20730594;28;20046;-72
2023/03/24 13:54:18;;;;;;;7.05;1.60;;;;;;;13.79;100.00;99423.66;20731265;28;20056;-72
2023/03/24 14:04:19;;;;;;;9.32;1.70;;;;;;;13.77;100.00;99439.50;20730420;28;20137;-72
2023/03/24 14:14:20;;;;;;;9.25;2.25;;;;;;;14.05;100.00;99425.97;20729745;28;20565;-72
2023/03/24 14:24:22;;;;;;;5.90;1.65;;;;;;;14.47;100.00;99416.13;20726705;28;20057;-72
2023/03/24 14:34:24;;;;;;;5.28;1.50;;;;;;;14.23;100.00;99407.59;20719856;28;20525;-71
2023/03/24 14:44:25;;;;;;;6.57;1.67;;;;;;;14.39;100.00;99403.34;20726373;28;20129;-70
2023/03/24 14:54:26;;;;;;;9.27;2.10;;;;;;;14.45;100.00;99407.47;20727923;28;20054;-71
2023/03/24 15:04:28;;;;;;;5.53;1.77;;;;;;;14.53;100.00;99385.13;20724750;28;20116;-71
2023/03/24 15:14:29;;;;;;;7.40;1.75;;;;;;;14.88;100.00;99396.59;20724334;28;20104;-70
2023/03/24 15:24:31;;;;;;;4.63;1.80;;;;;;;14.89;100.00;99371.06;20724843;28;20053;-70
2023/03/24 15:34:32;;;;;;;5.38;1.67;;;;;;;14.63;100.00;99370.59;20722284;28;20482;-70
2023/03/24 15:44:34;;;;;;;5.50;1.27;;;;;;;14.69;100.00;99368.59;20717408;28;20056;-71
2023/03/24 15:54:35;;;;;;;6.60;2.00;;;;;;;15.00;100.00;99363.50;20719235;28;20038;-71
2023/03/24 16:04:37;;;;;;;3.75;1.27;;;;;;;14.62;100.00;99357.50;20721522;28;20260;-71
2023/03/24 16:14:39;;;;;;;4.90;1.55;;;;;;;14.54;100.00;99354.38;20721293;28;20096;-70
2023/03/24 16:24:40;;;;;;;4.55;1.58;;;;;;;14.35;100.00;99349.13;20721441;28;20125;-70
2023/03/24 16:34:42;;;;;;;5.95;1.85;;;;;;;14.23;100.00;99365.47;20719910;28;20053;-68
2023/03/24 16:44:45;;;;;;;2.63;1.33;;;;;;;13.97;100.00;99364.06;20719555;28;20053;-70
2023/03/24 16:54:46;;;;;;;4.60;1.40;;;;;;;13.96;100.00;99362.38;20712022;28;20105;-69
2023/03/24 17:04:48;;;;;;;3.50;1.23;;;;;;;13.87;100.00;99376.81;20724449;28;20487;-70
2023/03/24 17:25:07;;;;;;;6.07;2.50;;;;;;;13.30;100.00;99394.22;13405645;26;20066;-80
2023/03/24 17:35:09;;;;;;;5.65;1.80;;;;;;;12.99;100.00;99420.94;20928259;28;20069;-81
2023/03/24 17:45:10;;;;;;;10.80;2.20;;;;;;;12.81;100.00;99422.53;20922681;28;20127;-80
2023/03/24 17:55:12;;;;;;;7.15;2.72;;;;;;;12.70;100.00;99435.25;20924880;28;20076;-80
2023/03/24 18:05:14;;;;;;;5.40;1.98;;;;;;;12.43;100.00;99445.91;20931143;28;20045;-80
2023/03/24 18:15:16;;;;;;;6.68;2.65;;;;;;;12.22;100.00;99441.50;20931208;28;20079;-81
2023/03/24 18:25:17;;;;;;;6.60;3.17;;;;;;;12.04;100.00;99451.75;20921560;28;20077;-80
2023/03/24 18:35:19;;;;;;;5.72;2.22;;;;;;;11.89;100.00;99451.47;20909688;28;20143;-80
2023/03/24 18:45:20;;;;;;;5.60;2.13;;;;;;;11.78;100.00;99468.38;20881333;28;20049;-80
2023/03/24 18:55:23;;;;;;;4.30;2.30;;;;;;;11.73;100.00;99466.84;20890772;28;20056;-79
2023/03/24 19:05:24;;;;;;;5.47;2.00;;;;;;;11.84;100.00;99469.97;20887232;28;20115;-80
2023/03/24 19:15:28;;;;;;;5.10;2.45;;;;;;;11.68;100.00;99468.75;20903778;28;20049;-79
2023/03/24 19:25:30;;;;;;;4.47;1.97;;;;;;;11.56;100.00;99491.88;20901203;28;20155;-78
2023/03/24 19:35:31;;;;;;;9.48;2.75;;;;;;;11.66;100.00;99471.44;20889817;28;20051;-78
2023/03/24 19:45:33;;;;;;;6.45;2.90;;;;;;;11.83;100.00;99478.75;20918123;28;20071;-79
2023/03/24 19:55:35;;;;;;;4.30;1.85;;;;;;;11.84;100.00;99485.72;20927356;28;20045;-80
2023/03/24 20:05:36;;;;;;;4.00;1.70;;;;;;;11.76;100.00;99477.22;20917237;28;20049;-79
2023/03/24 20:15:37;;;;;;;6.38;2.20;;;;;;;11.48;100.00;99465.06;20905880;28;20466;-79
2023/03/24 20:25:39;;;;;;;5.50;2.10;;;;;;;11.43;100.00;99485.34;20911252;28;20059;-79
2023/03/24 20:35:40;;;;;;;5.35;2.22;;;;;;;11.39;100.00;99582.47;20891205;28;20049;-78
2023/03/24 20:45:42;;;;;;;4.97;1.90;;;;;;;10.88;100.00;99549.16;20908018;28;20045;-78
2023/03/24 20:55:47;;;;;;;11.40;2.60;;;;;;;10.52;100.00;99537.09;20919099;28;20644;-79
2023/03/24 21:05:49;;;;;;;8.32;2.85;;;;;;;10.43;100.00;99541.75;20921142;28;20056;-80
2023/03/24 21:15:51;;;;;;;8.85;4.10;;;;;;;10.22;100.00;99553.66;20919870;28;20041;-79
2023/03/24 21:25:52;;;;;;;6.13;3.33;;;;;;;10.02;100.00;99542.00;20897699;28;20111;-79
2023/03/24 21:35:53;;;;;;;6.60;2.60;;;;;;;9.89;100.00;99556.28;20921288;28;20713;-79
2023/03/24 21:45:55;;;;;;;7.82;3.13;;;;;;;9.87;100.00;99555.47;20925192;28;20049;-80
2023/03/24 21:56:03;;;;;;;7.85;2.70;;;;;;;9.88;100.00;99538.88;20917877;28;20524;-80
2023/03/24 22:06:04;;;;;;;5.03;2.17;;;;;;;9.99;100.00;99554.28;20931392;28;20131;-81
2023/03/24 22:16:06;;;;;;;7.57;2.13;;;;;;;10.07;100.00;99575.00;20919160;28;20049;-79
2023/03/24 22:26:07;;;;;;;5.93;2.10;;;;;;;10.21;100.00;99625.19;20905013;28;20087;-78
2023/03/24 22:36:08;;;;;;;5.65;1.30;;;;;;;9.92;100.00;99581.50;20897387;28;20494;-78
2023/03/24 22:46:10;;;;;;;4.13;1.40;;;;;;;9.76;100.00;99617.63;20905649;28;20496;-80
2023/03/24 22:56:11;;;;;;;6.57;2.28;;;;;;;9.68;100.00;99630.03;20906329;28;20052;-78
2023/03/24 23:06:14;;;;;;;6.00;2.00;;;;;;;9.68;100.00;99648.34;20892701;28;20490;-79
2023/03/24 23:16:16;;;;;;;4.78;1.63;;;;;;;9.41;100.00;99647.22;20888985;28;20084;-80
2023/03/24 23:26:17;;;;;;;3.85;1.02;;;;;;;9.40;100.00;99659.44;20897002;28;20051;-79
2023/03/24 23:36:27;;;;;;;7.07;1.17;;;;;;;9.35;100.00;99671.75;20875970;28;20068;-79
2023/03/24 23:46:28;;;;;;;4.00;0.82;;;;;;;9.26;100.00;99679.78;20897784;28;20053;-81
2023/03/24 23:56:35;;;;;;;4.40;1.13;;;;;;;9.16;100.00;99665.22;20913146;28;20136;-79
